sensor_id;sensor_type;location;lat;lon;timestamp;pressure;altitude;pressure_sealevel;temperature
76381;BMP280;65202;52.520;10.528;2023-07-28T00:01:19;99700.53;;;17.72
76381;BMP280;65202;52.520;10.528;2023-07-28T00:03:46;99705.56;;;17.75
76381;BMP280;65202;52.520;10.528;2023-07-28T00:06:13;99707.25;;;17.79
76381;BMP280;65202;52.520;10.528;2023-07-28T00:08:41;99703.03;;;17.81
76381;BMP280;65202;52.520;10.528;2023-07-28T00:11:10;99701.38;;;17.75
76381;BMP280;65202;52.520;10.528;2023-07-28T00:13:39;99703.88;;;17.74
76381;BMP280;65202;52.520;10.528;2023-07-28T00:16:08;99695.47;;;17.72
76381;BMP280;65202;52.520;10.528;2023-07-28T00:18:36;99700.50;;;17.75
76381;BMP280;65202;52.520;10.528;2023-07-28T00:21:04;99700.50;;;17.81
76381;BMP280;65202;52.520;10.528;2023-07-28T00:23:32;99701.38;;;17.77
76381;BMP280;65202;52.520;10.528;2023-07-28T00:25:59;99704.75;;;17.74
76381;BMP280;65202;52.520;10.528;2023-07-28T00:28:26;99696.28;;;17.74
76381;BMP280;65202;52.520;10.528;2023-07-28T00:30:54;99698.84;;;17.75
76381;BMP280;65202;52.520;10.528;2023-07-28T00:33:21;99697.13;;;17.71
76381;BMP280;65202;52.520;10.528;2023-07-28T00:35:49;99700.50;;;17.69
76381;BMP280;65202;52.520;10.528;2023-07-28T00:38:16;99698.84;;;17.71
76381;BMP280;65202;52.520;10.528;2023-07-28T00:40:43;99698.81;;;17.74
76381;BMP280;65202;52.520;10.528;2023-07-28T00:43:10;99692.09;;;17.73
76381;BMP280;65202;52.520;10.528;2023-07-28T00:45:38;99692.09;;;17.73
76381;BMP280;65202;52.520;10.528;2023-07-28T00:48:11;99702.19;;;17.70
76381;BMP280;65202;52.520;10.528;2023-07-28T00:50:47;99699.66;;;17.70
76381;BMP280;65202;52.520;10.528;2023-07-28T00:53:15;99702.19;;;17.70
76381;BMP280;65202;52.520;10.528;2023-07-28T00:55:43;99700.50;;;17.69
76381;BMP280;65202;52.520;10.528;2023-07-28T00:58:10;99703.06;;;17.72
76381;BMP280;65202;52.520;10.528;2023-07-28T01:00:37;99697.13;;;17.70
76381;BMP280;65202;52.520;10.528;2023-07-28T01:03:05;99698.00;;;17.72
76381;BMP280;65202;52.520;10.528;2023-07-28T01:05:51;99693.78;;;17.71
76381;BMP280;65202;52.520;10.528;2023-07-28T01:08:42;99698.00;;;17.73
76381;BMP280;65202;52.520;10.528;2023-07-28T01:11:16;99693.78;;;17.71
76381;BMP280;65202;52.520;10.528;2023-07-28T01:13:43;99688.69;;;17.74
76381;BMP280;65202;52.520;10.528;2023-07-28T01:16:11;99691.22;;;17.74
76381;BMP280;65202;52.520;10.528;2023-07-28T01:18:38;99687.88;;;17.73
76381;BMP280;65202;52.520;10.528;2023-07-28T01:21:08;99687.84;;;17.67
76381;BMP280;65202;52.520;10.528;2023-07-28T01:24:13;99683.63;;;17.74
76381;BMP280;65202;52.520;10.528;2023-07-28T01:27:08;99688.69;;;17.74
76381;BMP280;65202;52.520;10.528;2023-07-28T01:29:36;99685.34;;;17.66
76381;BMP280;65202;52.520;10.528;2023-07-28T01:32:04;99682.81;;;17.67
76381;BMP280;65202;52.520;10.528;2023-07-28T01:34:32;99681.97;;;17.67
76381;BMP280;65202;52.520;10.528;2023-07-28T01:36:59;99679.41;;;17.71
76381;BMP280;65202;52.520;10.528;2023-07-28T01:39:26;99672.69;;;17.65
76381;BMP280;65202;52.520;10.528;2023-07-28T01:41:53;99675.19;;;17.69
76381;BMP280;65202;52.520;10.528;2023-07-28T01:44:21;99676.91;;;17.67
76381;BMP280;65202;52.520;10.528;2023-07-28T01:46:48;99677.75;;;17.67
76381;BMP280;65202;52.520;10.528;2023-07-28T01:49:15;99675.22;;;17.63
76381;BMP280;65202;52.520;10.528;2023-07-28T01:51:42;99676.88;;;17.70
76381;BMP280;65202;52.520;10.528;2023-07-28T01:54:09;99685.31;;;17.69
76381;BMP280;65202;52.520;10.528;2023-07-28T01:56:37;99684.50;;;17.67
76381;BMP280;65202;52.520;10.528;2023-07-28T01:59:04;99685.34;;;17.66
76381;BMP280;65202;52.520;10.528;2023-07-28T02:01:32;99688.72;;;17.71
76381;BMP280;65202;52.520;10.528;2023-07-28T02:03:59;99692.09;;;17.67
76381;BMP280;65202;52.520;10.528;2023-07-28T02:06:26;99679.44;;;17.66
76381;BMP280;65202;52.520;10.528;2023-07-28T02:08:54;99684.50;;;17.68
76381;BMP280;65202;52.520;10.528;2023-07-28T02:11:21;99690.38;;;17.69
76381;BMP280;65202;52.520;10.528;2023-07-28T02:13:49;99689.56;;;17.66
76381;BMP280;65202;52.520;10.528;2023-07-28T02:16:17;99692.06;;;17.64
76381;BMP280;65202;52.520;10.528;2023-07-28T02:18:44;99685.34;;;17.60
76381;BMP280;65202;52.520;10.528;2023-07-28T02:21:11;99692.09;;;17.63
76381;BMP280;65202;52.520;10.528;2023-07-28T02:23:39;99687.88;;;17.63
76381;BMP280;65202;52.520;10.528;2023-07-28T02:26:06;99698.81;;;17.59
76381;BMP280;65202;52.520;10.528;2023-07-28T02:28:34;99700.53;;;17.66
76381;BMP280;65202;52.520;10.528;2023-07-28T02:31:01;99702.22;;;17.60
76381;BMP280;65202;52.520;10.528;2023-07-28T02:33:28;99697.16;;;17.60
76381;BMP280;65202;52.520;10.528;2023-07-28T02:36:05;99696.31;;;17.56
76381;BMP280;65202;52.520;10.528;2023-07-28T02:38:32;99698.00;;;17.65
76381;BMP280;65202;52.520;10.528;2023-07-28T02:41:00;99697.16;;;17.55
76381;BMP280;65202;52.520;10.528;2023-07-28T02:43:27;99696.28;;;17.59
76381;BMP280;65202;52.520;10.528;2023-07-28T02:45:55;99697.97;;;17.62
76381;BMP280;65202;52.520;10.528;2023-07-28T02:48:24;99693.75;;;17.59
76381;BMP280;65202;52.520;10.528;2023-07-28T02:50:51;99689.53;;;17.57
76381;BMP280;65202;52.520;10.528;2023-07-28T02:53:19;99691.22;;;17.59
76381;BMP280;65202;52.520;10.528;2023-07-28T02:55:47;99690.38;;;17.54
76381;BMP280;65202;52.520;10.528;2023-07-28T02:58:15;99688.72;;;17.55
76381;BMP280;65202;52.520;10.528;2023-07-28T03:00:43;99686.16;;;17.59
76381;BMP280;65202;52.520;10.528;2023-07-28T03:03:13;99692.91;;;17.60
76381;BMP280;65202;52.520;10.528;2023-07-28T03:05:40;99687.03;;;17.55
76381;BMP280;65202;52.520;10.528;2023-07-28T03:08:08;99697.16;;;17.55
76381;BMP280;65202;52.520;10.528;2023-07-28T03:10:35;99693.78;;;17.55
76381;BMP280;65202;52.520;10.528;2023-07-28T03:13:02;99689.56;;;17.51
76381;BMP280;65202;52.520;10.528;2023-07-28T03:15:29;99689.56;;;17.55
76381;BMP280;65202;52.520;10.528;2023-07-28T03:17:57;99700.53;;;17.57
76381;BMP280;65202;52.520;10.528;2023-07-28T03:20:24;99698.81;;;17.59
76381;BMP280;65202;52.520;10.528;2023-07-28T03:22:52;99702.22;;;17.52
76381;BMP280;65202;52.520;10.528;2023-07-28T03:25:20;99697.16;;;17.55
76381;BMP280;65202;52.520;10.528;2023-07-28T03:27:47;99697.97;;;17.54
76381;BMP280;65202;52.520;10.528;2023-07-28T03:30:14;99696.31;;;17.56
76381;BMP280;65202;52.520;10.528;2023-07-28T03:32:42;99698.84;;;17.55
76381;BMP280;65202;52.520;10.528;2023-07-28T03:35:09;99708.94;;;17.50
76381;BMP280;65202;52.520;10.528;2023-07-28T03:37:36;99719.09;;;17.53
76381;BMP280;65202;52.520;10.528;2023-07-28T03:40:04;99731.75;;;17.53
76381;BMP280;65202;52.520;10.528;2023-07-28T03:42:31;99728.38;;;17.56
76381;BMP280;65202;52.520;10.528;2023-07-28T03:44:59;99726.69;;;17.55
76381;BMP280;65202;52.520;10.528;2023-07-28T03:47:26;99740.16;;;17.55
76381;BMP280;65202;52.520;10.528;2023-07-28T03:49:53;99738.47;;;17.54
76381;BMP280;65202;52.520;10.528;2023-07-28T03:52:21;99735.13;;;17.58
76381;BMP280;65202;52.520;10.528;2023-07-28T03:54:48;99745.22;;;17.55
76381;BMP280;65202;52.520;10.528;2023-07-28T03:57:15;99742.69;;;17.57
76381;BMP280;65202;52.520;10.528;2023-07-28T03:59:42;99734.25;;;17.58
76381;BMP280;65202;52.520;10.528;2023-07-28T04:02:10;99744.41;;;17.61
76381;BMP280;65202;52.520;10.528;2023-07-28T04:04:37;99742.69;;;17.63
76381;BMP280;65202;52.520;10.528;2023-07-28T04:07:05;99746.91;;;17.65
76381;BMP280;65202;52.520;10.528;2023-07-28T04:09:32;99739.34;;;17.62
76381;BMP280;65202;52.520;10.528;2023-07-28T04:11:59;99749.47;;;17.62
76381;BMP280;65202;52.520;10.528;2023-07-28T04:14:27;99761.25;;;17.62
76381;BMP280;65202;52.520;10.528;2023-07-28T04:16:54;99757.88;;;17.61
76381;BMP280;65202;52.520;10.528;2023-07-28T04:19:21;99751.97;;;17.62
76381;BMP280;65202;52.520;10.528;2023-07-28T04:21:48;99753.69;;;17.63
76381;BMP280;65202;52.520;10.528;2023-07-28T04:24:15;99755.34;;;17.61
76381;BMP280;65202;52.520;10.528;2023-07-28T04:26:43;99757.03;;;17.65
76381;BMP280;65202;52.520;10.528;2023-07-28T04:29:10;99751.13;;;17.66
76381;BMP280;65202;52.520;10.528;2023-07-28T04:31:37;99750.28;;;17.63
76381;BMP280;65202;52.520;10.528;2023-07-28T04:34:05;99757.91;;;17.67
76381;BMP280;65202;52.520;10.528;2023-07-28T04:36:32;99751.13;;;17.69
76381;BMP280;65202;52.520;10.528;2023-07-28T04:39:00;99752.81;;;17.70
76381;BMP280;65202;52.520;10.528;2023-07-28T04:41:27;99746.06;;;17.66
76381;BMP280;65202;52.520;10.528;2023-07-28T04:43:54;99758.75;;;17.65
76381;BMP280;65202;52.520;10.528;2023-07-28T04:46:22;99762.13;;;17.69
76381;BMP280;65202;52.520;10.528;2023-07-28T04:48:49;99768.88;;;17.72
76381;BMP280;65202;52.520;10.528;2023-07-28T04:51:16;99763.81;;;17.70
76381;BMP280;65202;52.520;10.528;2023-07-28T04:53:43;99773.06;;;17.70
76381;BMP280;65202;52.520;10.528;2023-07-28T04:56:10;99780.69;;;17.73
76381;BMP280;65202;52.520;10.528;2023-07-28T04:58:38;99779.84;;;17.68
76381;BMP280;65202;52.520;10.528;2023-07-28T05:01:05;99781.50;;;17.69
76381;BMP280;65202;52.520;10.528;2023-07-28T05:03:35;99773.94;;;17.70
76381;BMP280;65202;52.520;10.528;2023-07-28T05:06:03;99776.44;;;17.69
76381;BMP280;65202;52.520;10.528;2023-07-28T05:08:32;99776.44;;;17.66
76381;BMP280;65202;52.520;10.528;2023-07-28T05:10:59;99773.06;;;17.68
76381;BMP280;65202;52.520;10.528;2023-07-28T05:13:26;99778.13;;;17.67
76381;BMP280;65202;52.520;10.528;2023-07-28T05:15:53;99778.13;;;17.70
76381;BMP280;65202;52.520;10.528;2023-07-28T05:18:21;99779.00;;;17.70
76381;BMP280;65202;52.520;10.528;2023-07-28T05:20:48;99786.56;;;17.69
76381;BMP280;65202;52.520;10.528;2023-07-28T05:23:15;99781.50;;;17.66
76381;BMP280;65202;52.520;10.528;2023-07-28T05:25:42;99789.97;;;17.68
76381;BMP280;65202;52.520;10.528;2023-07-28T05:28:09;99793.31;;;17.68
76381;BMP280;65202;52.520;10.528;2023-07-28T05:30:37;99794.19;;;17.72
76381;BMP280;65202;52.520;10.528;2023-07-28T05:33:04;99789.97;;;17.68
76381;BMP280;65202;52.520;10.528;2023-07-28T05:35:31;99797.53;;;17.69
76381;BMP280;65202;52.520;10.528;2023-07-28T05:37:59;99800.06;;;17.74
76381;BMP280;65202;52.520;10.528;2023-07-28T05:40:26;99807.69;;;17.78
76381;BMP280;65202;52.520;10.528;2023-07-28T05:42:53;99807.66;;;17.80
76381;BMP280;65202;52.520;10.528;2023-07-28T05:45:20;99809.38;;;17.79
76381;BMP280;65202;52.520;10.528;2023-07-28T05:47:47;99806.81;;;17.84
76381;BMP280;65202;52.520;10.528;2023-07-28T05:50:15;99796.72;;;17.81
76381;BMP280;65202;52.520;10.528;2023-07-28T05:52:42;99798.38;;;17.79
76381;BMP280;65202;52.520;10.528;2023-07-28T05:55:10;99805.97;;;17.85
76381;BMP280;65202;52.520;10.528;2023-07-28T05:57:37;99805.16;;;17.92
76381;BMP280;65202;52.520;10.528;2023-07-28T06:00:05;99816.13;;;17.89
76381;BMP280;65202;52.520;10.528;2023-07-28T06:02:36;99816.13;;;17.97
76381;BMP280;65202;52.520;10.528;2023-07-28T06:05:04;99811.06;;;18.06
76381;BMP280;65202;52.520;10.528;2023-07-28T06:07:31;99810.22;;;18.04
76381;BMP280;65202;52.520;10.528;2023-07-28T06:09:58;99812.72;;;18.13
76381;BMP280;65202;52.520;10.528;2023-07-28T06:12:26;99827.06;;;18.17
76381;BMP280;65202;52.520;10.528;2023-07-28T06:14:53;99821.19;;;18.19
76381;BMP280;65202;52.520;10.528;2023-07-28T06:17:20;99830.50;;;18.19
76381;BMP280;65202;52.520;10.528;2023-07-28T06:19:47;99833.88;;;18.18
76381;BMP280;65202;52.520;10.528;2023-07-28T06:22:15;99838.06;;;18.22
76381;BMP280;65202;52.520;10.528;2023-07-28T06:24:42;99836.41;;;18.24
76381;BMP280;65202;52.520;10.528;2023-07-28T06:27:09;99842.31;;;18.33
76381;BMP280;65202;52.520;10.528;2023-07-28T06:29:37;99843.97;;;18.10
76381;BMP280;65202;52.520;10.528;2023-07-28T06:32:04;99844.84;;;18.11
76381;BMP280;65202;52.520;10.528;2023-07-28T06:34:32;99850.72;;;18.13
76381;BMP280;65202;52.520;10.528;2023-07-28T06:36:59;99851.59;;;18.13
76381;BMP280;65202;52.520;10.528;2023-07-28T06:39:27;99851.56;;;18.16
76381;BMP280;65202;52.520;10.528;2023-07-28T06:41:54;99864.28;;;18.21
76381;BMP280;65202;52.520;10.528;2023-07-28T06:44:21;99861.75;;;18.21
76381;BMP280;65202;52.520;10.528;2023-07-28T06:46:49;99864.25;;;18.18
76381;BMP280;65202;52.520;10.528;2023-07-28T06:49:17;99870.13;;;18.17
76381;BMP280;65202;52.520;10.528;2023-07-28T06:51:44;99860.06;;;18.20
76381;BMP280;65202;52.520;10.528;2023-07-28T06:54:11;99872.72;;;18.23
76381;BMP280;65202;52.520;10.528;2023-07-28T06:56:40;99871.03;;;18.33
76381;BMP280;65202;52.520;10.528;2023-07-28T06:59:08;99873.53;;;18.36
76381;BMP280;65202;52.520;10.528;2023-07-28T07:01:44;99875.22;;;18.46
76381;BMP280;65202;52.520;10.528;2023-07-28T07:04:11;99884.53;;;18.44
76381;BMP280;65202;52.520;10.528;2023-07-28T07:06:39;99875.22;;;18.48
76381;BMP280;65202;52.520;10.528;2023-07-28T07:09:06;99876.06;;;18.51
76381;BMP280;65202;52.520;10.528;2023-07-28T07:11:35;99882.84;;;18.58
76381;BMP280;65202;52.520;10.528;2023-07-28T07:14:02;99878.59;;;18.66
76381;BMP280;65202;52.520;10.528;2023-07-28T07:16:32;99876.03;;;18.78
76381;BMP280;65202;52.520;10.528;2023-07-28T07:18:59;99879.38;;;18.92
76381;BMP280;65202;52.520;10.528;2023-07-28T07:21:27;99880.19;;;19.07
76381;BMP280;65202;52.520;10.528;2023-07-28T07:23:55;99879.28;;;19.25
76381;BMP280;65202;52.520;10.528;2023-07-28T07:26:22;99880.03;;;19.42
76381;BMP280;65202;52.520;10.528;2023-07-28T07:28:49;99870.75;;;19.44
76381;BMP280;65202;52.520;10.528;2023-07-28T07:31:16;99877.47;;;19.52
76381;BMP280;65202;52.520;10.528;2023-07-28T07:33:44;99877.44;;;19.51
76381;BMP280;65202;52.520;10.528;2023-07-28T07:36:12;99874.13;;;19.37
76381;BMP280;65202;52.520;10.528;2023-07-28T07:38:40;99883.47;;;19.35
76381;BMP280;65202;52.520;10.528;2023-07-28T07:41:08;99886.84;;;19.40
76381;BMP280;65202;52.520;10.528;2023-07-28T07:43:38;99895.34;;;19.28
76381;BMP280;65202;52.520;10.528;2023-07-28T07:46:06;99898.72;;;19.27
76381;BMP280;65202;52.520;10.528;2023-07-28T07:48:33;99901.28;;;19.23
76381;BMP280;65202;52.520;10.528;2023-07-28T07:51:00;99901.31;;;19.17
76381;BMP280;65202;52.520;10.528;2023-07-28T07:53:27;99907.25;;;19.08
76381;BMP280;65202;52.520;10.528;2023-07-28T07:55:55;99911.47;;;19.08
76381;BMP280;65202;52.520;10.528;2023-07-28T07:58:22;99903.84;;;19.08
76381;BMP280;65202;52.520;10.528;2023-07-28T08:00:49;99912.31;;;19.10
76381;BMP280;65202;52.520;10.528;2023-07-28T08:03:17;99918.22;;;19.06
76381;BMP280;65202;52.520;10.528;2023-07-28T08:05:44;99922.44;;;19.04
76381;BMP280;65202;52.520;10.528;2023-07-28T08:08:11;99919.94;;;19.08
76381;BMP280;65202;52.520;10.528;2023-07-28T08:10:39;99926.69;;;19.08
76381;BMP280;65202;52.520;10.528;2023-07-28T08:13:06;99932.59;;;19.17
76381;BMP280;65202;52.520;10.528;2023-07-28T08:15:33;99932.59;;;19.17
76381;BMP280;65202;52.520;10.528;2023-07-28T08:18:01;99937.66;;;19.17
76381;BMP280;65202;52.520;10.528;2023-07-28T08:20:28;99941.03;;;19.19
76381;BMP280;65202;52.520;10.528;2023-07-28T08:22:55;99947.81;;;19.19
76381;BMP280;65202;52.520;10.528;2023-07-28T08:25:23;99944.41;;;19.24
76381;BMP280;65202;52.520;10.528;2023-07-28T08:27:50;99946.97;;;19.14
76381;BMP280;65202;52.520;10.528;2023-07-28T08:30:18;99945.28;;;19.19
76381;BMP280;65202;52.520;10.528;2023-07-28T08:32:46;99947.78;;;19.22
76381;BMP280;65202;52.520;10.528;2023-07-28T08:35:13;99948.69;;;19.12
76381;BMP280;65202;52.520;10.528;2023-07-28T08:37:40;99962.16;;;19.27
76381;BMP280;65202;52.520;10.528;2023-07-28T08:40:08;99948.63;;;19.36
76381;BMP280;65202;52.520;10.528;2023-07-28T08:42:39;99951.06;;;19.49
76381;BMP280;65202;52.520;10.528;2023-07-28T08:45:07;99944.13;;;19.90
76381;BMP280;65202;52.520;10.528;2023-07-28T08:47:36;99953.38;;;20.04
76381;BMP280;65202;52.520;10.528;2023-07-28T08:50:04;99950.78;;;20.12
76381;BMP280;65202;52.520;10.528;2023-07-28T08:52:33;99953.41;;;19.89
76381;BMP280;65202;52.520;10.528;2023-07-28T08:55:00;99955.16;;;19.93
76381;BMP280;65202;52.520;10.528;2023-07-28T08:57:28;99956.84;;;19.91
76381;BMP280;65202;52.520;10.528;2023-07-28T08:59:55;99961.88;;;20.00
76381;BMP280;65202;52.520;10.528;2023-07-28T09:02:23;99960.16;;;20.02
76381;BMP280;65202;52.520;10.528;2023-07-28T09:04:50;99966.06;;;20.07
76381;BMP280;65202;52.520;10.528;2023-07-28T09:07:17;99969.53;;;19.84
76381;BMP280;65202;52.520;10.528;2023-07-28T09:09:45;99967.06;;;19.69
76381;BMP280;65202;52.520;10.528;2023-07-28T09:12:13;99977.25;;;19.61
76381;BMP280;65202;52.520;10.528;2023-07-28T09:14:40;99992.50;;;19.56
76381;BMP280;65202;52.520;10.528;2023-07-28T09:17:10;99984.91;;;19.57
76381;BMP280;65202;52.520;10.528;2023-07-28T09:19:53;99988.34;;;19.46
76381;BMP280;65202;52.520;10.528;2023-07-28T09:22:22;99989.19;;;19.42
76381;BMP280;65202;52.520;10.528;2023-07-28T09:24:50;99986.59;;;19.61
76381;BMP280;65202;52.520;10.528;2023-07-28T09:27:20;99994.16;;;19.74
76381;BMP280;65202;52.520;10.528;2023-07-28T09:29:52;99987.34;;;19.82
76381;BMP280;65202;52.520;10.528;2023-07-28T09:32:32;99986.47;;;19.91
76381;BMP280;65202;52.520;10.528;2023-07-28T09:35:09;99995.78;;;19.83
76381;BMP280;65202;52.520;10.528;2023-07-28T09:37:41;99998.34;;;19.86
76381;BMP280;65202;52.520;10.528;2023-07-28T09:40:11;99997.50;;;19.79
76381;BMP280;65202;52.520;10.528;2023-07-28T09:42:45;99994.91;;;19.97
76381;BMP280;65202;52.520;10.528;2023-07-28T09:45:21;99988.03;;;20.14
76381;BMP280;65202;52.520;10.528;2023-07-28T09:48:06;99993.75;;;20.43
76381;BMP280;65202;52.520;10.528;2023-07-28T09:50:38;99997.22;;;20.33
76381;BMP280;65202;52.520;10.528;2023-07-28T09:53:10;99994.69;;;20.36
76381;BMP280;65202;52.520;10.528;2023-07-28T09:55:40;100003.78;;;20.64
76381;BMP280;65202;52.520;10.528;2023-07-28T09:58:11;99992.69;;;20.75
76381;BMP280;65202;52.520;10.528;2023-07-28T10:00:43;99996.09;;;20.71
76381;BMP280;65202;52.520;10.528;2023-07-28T10:03:11;99990.16;;;20.75
76381;BMP280;65202;52.520;10.528;2023-07-28T10:05:40;99985.75;;;20.92
76381;BMP280;65202;52.520;10.528;2023-07-28T10:08:07;99994.13;;;21.06
76381;BMP280;65202;52.520;10.528;2023-07-28T10:10:36;99996.22;;;21.46
76381;BMP280;65202;52.520;10.528;2023-07-28T10:13:03;99990.56;;;21.94
76381;BMP280;65202;52.520;10.528;2023-07-28T10:15:32;99981.91;;;22.05
76381;BMP280;65202;52.520;10.528;2023-07-28T10:18:00;99997.66;;;21.71
76381;BMP280;65202;52.520;10.528;2023-07-28T10:20:47;99993.38;;;21.73
76381;BMP280;65202;52.520;10.528;2023-07-28T10:23:20;99993.06;;;21.97
76381;BMP280;65202;52.520;10.528;2023-07-28T10:25:58;99982.16;;;21.86
76381;BMP280;65202;52.520;10.528;2023-07-28T10:31:11;99978.00;;;21.80
76381;BMP280;65202;52.520;10.528;2023-07-28T10:33:44;99987.44;;;21.74
76381;BMP280;65202;52.520;10.528;2023-07-28T10:39:12;100001.28;;;21.54
76381;BMP280;65202;52.520;10.528;2023-07-28T10:42:03;99986.72;;;21.61
76381;BMP280;65202;52.520;10.528;2023-07-28T10:44:32;99987.50;;;21.68
76381;BMP280;65202;52.520;10.528;2023-07-28T10:47:00;99987.34;;;21.81
76381;BMP280;65202;52.520;10.528;2023-07-28T10:49:28;99981.63;;;22.27
76381;BMP280;65202;52.520;10.528;2023-07-28T10:51:56;99976.22;;;22.45
76381;BMP280;65202;52.520;10.528;2023-07-28T10:54:23;99973.31;;;22.68
76381;BMP280;65202;52.520;10.528;2023-07-28T10:56:50;99973.03;;;22.84
76381;BMP280;65202;52.520;10.528;2023-07-28T10:59:18;99986.28;;;22.54
76381;BMP280;65202;52.520;10.528;2023-07-28T11:01:45;99985.47;;;22.51
76381;BMP280;65202;52.520;10.528;2023-07-28T11:04:16;99975.13;;;22.60
76381;BMP280;65202;52.520;10.528;2023-07-28T11:06:48;99975.38;;;22.46
76381;BMP280;65202;52.520;10.528;2023-07-28T11:09:19;99967.47;;;23.53
76381;BMP280;65202;52.520;10.528;2023-07-28T11:11:49;99966.19;;;23.76
76381;BMP280;65202;52.520;10.528;2023-07-28T11:14:18;99974.59;;;23.80
76381;BMP280;65202;52.520;10.528;2023-07-28T11:16:46;99968.53;;;23.85
76381;BMP280;65202;52.520;10.528;2023-07-28T11:19:16;99962.94;;;24.08
76381;BMP280;65202;52.520;10.528;2023-07-28T11:21:49;99963.31;;;23.90
76381;BMP280;65202;52.520;10.528;2023-07-28T11:24:19;99974.31;;;23.51
76381;BMP280;65202;52.520;10.528;2023-07-28T11:26:48;99978.84;;;23.37
76381;BMP280;65202;52.520;10.528;2023-07-28T11:29:18;99990.31;;;23.17
76381;BMP280;65202;52.520;10.528;2023-07-28T11:31:47;99987.81;;;23.15
76381;BMP280;65202;52.520;10.528;2023-07-28T11:34:16;99985.63;;;22.93
76381;BMP280;65202;52.520;10.528;2023-07-28T11:36:44;99978.13;;;22.84
76381;BMP280;65202;52.520;10.528;2023-07-28T11:39:12;99982.31;;;22.88
76381;BMP280;65202;52.520;10.528;2023-07-28T11:41:41;99979.78;;;22.86
76381;BMP280;65202;52.520;10.528;2023-07-28T11:44:10;99987.09;;;23.09
76381;BMP280;65202;52.520;10.528;2023-07-28T11:46:40;99989.28;;;22.77
76381;BMP280;65202;52.520;10.528;2023-07-28T11:49:17;99983.31;;;22.80
76381;BMP280;65202;52.520;10.528;2023-07-28T11:51:53;99986.34;;;23.02
76381;BMP280;65202;52.520;10.528;2023-07-28T11:54:24;99987.47;;;22.85
76381;BMP280;65202;52.520;10.528;2023-07-28T11:56:55;99983.59;;;23.13
76381;BMP280;65202;52.520;10.528;2023-07-28T11:59:24;99990.16;;;23.26
76381;BMP280;65202;52.520;10.528;2023-07-28T12:04:25;99984.41;;;23.16
76381;BMP280;65202;52.520;10.528;2023-07-28T12:07:05;99988.63;;;23.16
76381;BMP280;65202;52.520;10.528;2023-07-28T12:12:25;99992.06;;;23.60
76381;BMP280;65202;52.520;10.528;2023-07-28T12:14:53;99988.91;;;23.88
76381;BMP280;65202;52.520;10.528;2023-07-28T12:17:25;99991.06;;;23.65
76381;BMP280;65202;52.520;10.528;2023-07-28T12:20:14;99996.41;;;23.53
76381;BMP280;65202;52.520;10.528;2023-07-28T12:22:44;100006.00;;;23.43
76381;BMP280;65202;52.520;10.528;2023-07-28T12:25:12;100012.00;;;23.42
76381;BMP280;65202;52.520;10.528;2023-07-28T12:27:39;99990.41;;;23.98
76381;BMP280;65202;52.520;10.528;2023-07-28T12:30:07;99991.44;;;23.90
76381;BMP280;65202;52.520;10.528;2023-07-28T12:32:43;99998.47;;;24.18
76381;BMP280;65202;52.520;10.528;2023-07-28T12:35:14;99998.81;;;24.41
76381;BMP280;65202;52.520;10.528;2023-07-28T12:37:42;100003.22;;;24.34
76381;BMP280;65202;52.520;10.528;2023-07-28T12:40:12;99999.88;;;24.31
76381;BMP280;65202;52.520;10.528;2023-07-28T12:42:43;99986.75;;;24.46
76381;BMP280;65202;52.520;10.528;2023-07-28T12:45:14;99997.66;;;24.16
76381;BMP280;65202;52.520;10.528;2023-07-28T12:47:47;100000.63;;;23.98
76381;BMP280;65202;52.520;10.528;2023-07-28T12:50:25;100009.22;;;23.94
76381;BMP280;65202;52.520;10.528;2023-07-28T12:52:52;99999.03;;;23.93
76381;BMP280;65202;52.520;10.528;2023-07-28T12:55:22;99997.31;;;23.93
76381;BMP280;65202;52.520;10.528;2023-07-28T12:57:49;100004.00;;;24.00
76381;BMP280;65202;52.520;10.528;2023-07-28T13:00:17;100002.44;;;23.93
76381;BMP280;65202;52.520;10.528;2023-07-28T13:02:47;100000.94;;;24.21
76381;BMP280;65202;52.520;10.528;2023-07-28T13:05:15;100012.22;;;24.14
76381;BMP280;65202;52.520;10.528;2023-07-28T13:07:44;100003.50;;;24.22
76381;BMP280;65202;52.520;10.528;2023-07-28T13:10:14;100013.22;;;24.45
76381;BMP280;65202;52.520;10.528;2023-07-28T13:12:44;100014.69;;;24.55
76381;BMP280;65202;52.520;10.528;2023-07-28T13:15:14;99995.00;;;24.20
76381;BMP280;65202;52.520;10.528;2023-07-28T13:17:41;100001.31;;;24.05
76381;BMP280;65202;52.520;10.528;2023-07-28T13:20:09;100003.31;;;23.92
76381;BMP280;65202;52.520;10.528;2023-07-28T13:22:38;100010.78;;;24.01
76381;BMP280;65202;52.520;10.528;2023-07-28T13:25:05;100011.56;;;24.05
76381;BMP280;65202;52.520;10.528;2023-07-28T13:27:32;100009.75;;;23.70
76381;BMP280;65202;52.520;10.528;2023-07-28T13:30:00;100007.84;;;23.78
76381;BMP280;65202;52.520;10.528;2023-07-28T13:32:27;100011.50;;;23.65
76381;BMP280;65202;52.520;10.528;2023-07-28T13:34:54;100014.25;;;23.56
76381;BMP280;65202;52.520;10.528;2023-07-28T13:37:21;100024.56;;;23.52
76381;BMP280;65202;52.520;10.528;2023-07-28T13:39:49;100021.94;;;23.97
76381;BMP280;65202;52.520;10.528;2023-07-28T13:42:18;100009.75;;;24.49
76381;BMP280;65202;52.520;10.528;2023-07-28T13:44:45;100007.50;;;24.70
76381;BMP280;65202;52.520;10.528;2023-07-28T13:47:25;100015.44;;;24.22
76381;BMP280;65202;52.520;10.528;2023-07-28T13:49:52;100016.00;;;23.97
76381;BMP280;65202;52.520;10.528;2023-07-28T13:52:19;100024.06;;;23.79
76381;BMP280;65202;52.520;10.528;2023-07-28T13:54:48;100017.66;;;23.99
76381;BMP280;65202;52.520;10.528;2023-07-28T13:57:19;100041.56;;;23.53
76381;BMP280;65202;52.520;10.528;2023-07-28T13:59:46;100035.09;;;23.36
76381;BMP280;65202;52.520;10.528;2023-07-28T14:02:14;100045.94;;;22.98
76381;BMP280;65202;52.520;10.528;2023-07-28T14:04:44;100053.63;;;22.97
76381;BMP280;65202;52.520;10.528;2023-07-28T14:07:11;100058.81;;;22.91
76381;BMP280;65202;52.520;10.528;2023-07-28T14:09:39;100052.44;;;22.65
76381;BMP280;65202;52.520;10.528;2023-07-28T14:12:06;100062.00;;;22.51
76381;BMP280;65202;52.520;10.528;2023-07-28T14:14:34;100057.78;;;22.48